Latest Areodrome Forecast (TAF)

TAF VMMC 192300Z 2000/2106 01015KT 8000 FEW012 SCT020=

Decoded TAF in plain language
Contents of Report Code Information
Report Type TAF Aerodrome Forecasts
Location VMMC Macao, China
Issuing Time 192300Z 19/11/2017 23:00 UTC
Period of Validity of Forecast 2000/2106 Between 20th 00:00 UTC and 21st 06:00 UTC
Surface Wind Direction and Speed 01015KT mean direction 010 degrees, speed 15 knots
Visibility 8000 8 kilometres
Weather    
Cloud FEW012 SCT020 amount 1-2 oktas, base 1200 feet;
amount 3-4 oktas, base 2000 feet

OTHER INTERNATIONAL AIRPORTS:
Weather Forecast (TAF)   Weather Report (METAR)